sensor_id;sensor_type;location;lat;lon;timestamp;temperature;humidity
78514;SHT31;67814;51.976;5.810;2023-12-20T00:00:15;9.1;74.6
78514;SHT31;67814;51.976;5.810;2023-12-20T00:02:43;9.1;74.7
78514;SHT31;67814;51.976;5.810;2023-12-20T00:05:13;9.1;74.7
78514;SHT31;67814;51.976;5.810;2023-12-20T00:07:42;9.1;74.7
78514;SHT31;67814;51.976;5.810;2023-12-20T00:10:11;9.1;74.5
78514;SHT31;67814;51.976;5.810;2023-12-20T00:12:40;9.1;74.4
78514;SHT31;67814;51.976;5.810;2023-12-20T00:15:09;9.1;74.6
78514;SHT31;67814;51.976;5.810;2023-12-20T00:17:38;9.1;74.9
78514;SHT31;67814;51.976;5.810;2023-12-20T00:20:07;9.1;75.2
78514;SHT31;67814;51.976;5.810;2023-12-20T00:22:36;9.1;75.1
78514;SHT31;67814;51.976;5.810;2023-12-20T00:25:05;9.1;74.8
78514;SHT31;67814;51.976;5.810;2023-12-20T00:27:34;9.1;74.5
78514;SHT31;67814;51.976;5.810;2023-12-20T00:30:03;9.1;74.2
78514;SHT31;67814;51.976;5.810;2023-12-20T00:32:32;9.1;74.0
78514;SHT31;67814;51.976;5.810;2023-12-20T00:35:01;9.1;74.0
78514;SHT31;67814;51.976;5.810;2023-12-20T00:37:30;9.0;74.0
78514;SHT31;67814;51.976;5.810;2023-12-20T00:39:58;9.0;74.0
78514;SHT31;67814;51.976;5.810;2023-12-20T00:42:27;9.0;74.1
78514;SHT31;67814;51.976;5.810;2023-12-20T00:44:55;8.9;74.2
78514;SHT31;67814;51.976;5.810;2023-12-20T00:47:24;8.9;74.4
78514;SHT31;67814;51.976;5.810;2023-12-20T00:49:53;8.8;74.4
78514;SHT31;67814;51.976;5.810;2023-12-20T00:52:21;8.8;74.5
78514;SHT31;67814;51.976;5.810;2023-12-20T00:54:50;8.8;74.6
78514;SHT31;67814;51.976;5.810;2023-12-20T00:57:21;8.8;74.6
78514;SHT31;67814;51.976;5.810;2023-12-20T00:59:51;8.7;74.6
78514;SHT31;67814;51.976;5.810;2023-12-20T01:02:20;8.7;74.5
78514;SHT31;67814;51.976;5.810;2023-12-20T01:04:49;8.7;74.4
78514;SHT31;67814;51.976;5.810;2023-12-20T01:07:17;8.7;74.4
78514;SHT31;67814;51.976;5.810;2023-12-20T01:09:46;8.7;74.5
78514;SHT31;67814;51.976;5.810;2023-12-20T01:12:15;8.7;74.4
78514;SHT31;67814;51.976;5.810;2023-12-20T01:14:43;8.6;74.4
78514;SHT31;67814;51.976;5.810;2023-12-20T01:17:12;8.6;74.4
78514;SHT31;67814;51.976;5.810;2023-12-20T01:19:42;8.6;74.5
78514;SHT31;67814;51.976;5.810;2023-12-20T01:22:11;8.6;74.6
78514;SHT31;67814;51.976;5.810;2023-12-20T01:24:40;8.6;74.6
78514;SHT31;67814;51.976;5.810;2023-12-20T01:27:09;8.6;74.6
78514;SHT31;67814;51.976;5.810;2023-12-20T01:29:37;8.6;74.6
78514;SHT31;67814;51.976;5.810;2023-12-20T01:32:06;8.5;74.5
78514;SHT31;67814;51.976;5.810;2023-12-20T01:34:35;8.5;74.5
78514;SHT31;67814;51.976;5.810;2023-12-20T01:37:04;8.5;74.4
78514;SHT31;67814;51.976;5.810;2023-12-20T01:39:33;8.5;74.4
78514;SHT31;67814;51.976;5.810;2023-12-20T01:42:01;8.5;74.4
78514;SHT31;67814;51.976;5.810;2023-12-20T01:44:30;8.5;74.5
78514;SHT31;67814;51.976;5.810;2023-12-20T01:46:59;8.5;74.5
78514;SHT31;67814;51.976;5.810;2023-12-20T01:49:28;8.4;74.6
78514;SHT31;67814;51.976;5.810;2023-12-20T01:51:57;8.4;74.6
78514;SHT31;67814;51.976;5.810;2023-12-20T01:54:26;8.4;74.6
78514;SHT31;67814;51.976;5.810;2023-12-20T01:56:55;8.4;74.6
78514;SHT31;67814;51.976;5.810;2023-12-20T01:59:24;8.4;74.9
78514;SHT31;67814;51.976;5.810;2023-12-20T02:01:53;8.4;75.3
78514;SHT31;67814;51.976;5.810;2023-12-20T02:04:24;8.4;75.4
78514;SHT31;67814;51.976;5.810;2023-12-20T02:06:56;8.4;75.4
78514;SHT31;67814;51.976;5.810;2023-12-20T02:09:24;8.5;75.4
78514;SHT31;67814;51.976;5.810;2023-12-20T02:11:54;8.5;75.3
78514;SHT31;67814;51.976;5.810;2023-12-20T02:14:22;8.5;75.1
78514;SHT31;67814;51.976;5.810;2023-12-20T02:16:53;8.5;74.9
78514;SHT31;67814;51.976;5.810;2023-12-20T02:19:22;8.5;74.8
78514;SHT31;67814;51.976;5.810;2023-12-20T02:21:50;8.5;74.8
78514;SHT31;67814;51.976;5.810;2023-12-20T02:24:24;8.5;74.7
78514;SHT31;67814;51.976;5.810;2023-12-20T02:26:52;8.5;74.7
78514;SHT31;67814;51.976;5.810;2023-12-20T02:29:21;8.5;74.8
78514;SHT31;67814;51.976;5.810;2023-12-20T02:31:50;8.5;74.8
78514;SHT31;67814;51.976;5.810;2023-12-20T02:34:18;8.5;74.9
78514;SHT31;67814;51.976;5.810;2023-12-20T02:36:47;8.5;75.1
78514;SHT31;67814;51.976;5.810;2023-12-20T02:39:16;8.5;75.4
78514;SHT31;67814;51.976;5.810;2023-12-20T02:41:45;8.5;75.5
78514;SHT31;67814;51.976;5.810;2023-12-20T02:44:13;8.6;75.5
78514;SHT31;67814;51.976;5.810;2023-12-20T02:46:42;8.6;75.6
78514;SHT31;67814;51.976;5.810;2023-12-20T02:49:11;8.6;75.7
78514;SHT31;67814;51.976;5.810;2023-12-20T02:51:39;8.6;76.1
78514;SHT31;67814;51.976;5.810;2023-12-20T02:54:08;8.6;76.0
78514;SHT31;67814;51.976;5.810;2023-12-20T02:56:37;8.7;75.9
78514;SHT31;67814;51.976;5.810;2023-12-20T02:59:06;8.7;75.7
78514;SHT31;67814;51.976;5.810;2023-12-20T03:01:35;8.7;75.5
78514;SHT31;67814;51.976;5.810;2023-12-20T03:04:05;8.8;75.3
78514;SHT31;67814;51.976;5.810;2023-12-20T03:06:34;8.8;74.7
78514;SHT31;67814;51.976;5.810;2023-12-20T03:09:05;8.8;74.6
78514;SHT31;67814;51.976;5.810;2023-12-20T03:11:36;8.8;74.7
78514;SHT31;67814;51.976;5.810;2023-12-20T03:14:05;8.8;74.5
78514;SHT31;67814;51.976;5.810;2023-12-20T03:16:33;8.9;74.1
78514;SHT31;67814;51.976;5.810;2023-12-20T03:19:02;8.9;73.8
78514;SHT31;67814;51.976;5.810;2023-12-20T03:21:31;8.9;73.6
78514;SHT31;67814;51.976;5.810;2023-12-20T03:23:59;8.9;73.4
78514;SHT31;67814;51.976;5.810;2023-12-20T03:26:28;8.8;73.3
78514;SHT31;67814;51.976;5.810;2023-12-20T03:28:56;8.8;73.1
78514;SHT31;67814;51.976;5.810;2023-12-20T03:31:25;8.8;73.1
78514;SHT31;67814;51.976;5.810;2023-12-20T03:33:54;8.8;73.2
78514;SHT31;67814;51.976;5.810;2023-12-20T03:36:22;8.8;73.2
78514;SHT31;67814;51.976;5.810;2023-12-20T03:38:51;8.8;73.2
78514;SHT31;67814;51.976;5.810;2023-12-20T03:41:19;8.7;73.4
78514;SHT31;67814;51.976;5.810;2023-12-20T03:43:48;8.7;73.7
78514;SHT31;67814;51.976;5.810;2023-12-20T03:46:17;8.7;74.0
78514;SHT31;67814;51.976;5.810;2023-12-20T03:48:45;8.7;74.3
78514;SHT31;67814;51.976;5.810;2023-12-20T03:51:14;8.7;74.5
78514;SHT31;67814;51.976;5.810;2023-12-20T03:53:43;8.7;74.5
78514;SHT31;67814;51.976;5.810;2023-12-20T03:56:13;8.7;74.3
78514;SHT31;67814;51.976;5.810;2023-12-20T03:58:42;8.7;74.2
78514;SHT31;67814;51.976;5.810;2023-12-20T04:01:11;8.7;74.3
78514;SHT31;67814;51.976;5.810;2023-12-20T04:03:40;8.7;74.5
78514;SHT31;67814;51.976;5.810;2023-12-20T04:06:08;8.7;74.6
78514;SHT31;67814;51.976;5.810;2023-12-20T04:08:37;8.7;74.6
78514;SHT31;67814;51.976;5.810;2023-12-20T04:11:07;8.7;74.5
78514;SHT31;67814;51.976;5.810;2023-12-20T04:13:36;8.7;74.4
78514;SHT31;67814;51.976;5.810;2023-12-20T04:16:05;8.7;74.5
78514;SHT31;67814;51.976;5.810;2023-12-20T04:18:34;8.7;74.9
78514;SHT31;67814;51.976;5.810;2023-12-20T04:21:03;8.8;74.8
78514;SHT31;67814;51.976;5.810;2023-12-20T04:23:31;8.8;74.6
78514;SHT31;67814;51.976;5.810;2023-12-20T04:26:00;8.8;74.4
78514;SHT31;67814;51.976;5.810;2023-12-20T04:28:29;8.8;74.4
78514;SHT31;67814;51.976;5.810;2023-12-20T04:30:58;8.8;74.1
78514;SHT31;67814;51.976;5.810;2023-12-20T04:33:26;8.8;73.9
78514;SHT31;67814;51.976;5.810;2023-12-20T04:35:55;8.9;74.1
78514;SHT31;67814;51.976;5.810;2023-12-20T04:38:24;8.9;74.2
78514;SHT31;67814;51.976;5.810;2023-12-20T04:40:52;8.9;74.3
78514;SHT31;67814;51.976;5.810;2023-12-20T04:43:21;8.9;74.2
78514;SHT31;67814;51.976;5.810;2023-12-20T04:45:49;8.9;74.4
78514;SHT31;67814;51.976;5.810;2023-12-20T04:48:18;8.9;74.3
78514;SHT31;67814;51.976;5.810;2023-12-20T04:50:46;8.9;74.2
78514;SHT31;67814;51.976;5.810;2023-12-20T04:53:15;8.9;74.3
78514;SHT31;67814;51.976;5.810;2023-12-20T04:55:44;8.9;74.5
78514;SHT31;67814;51.976;5.810;2023-12-20T04:58:12;8.9;74.6
78514;SHT31;67814;51.976;5.810;2023-12-20T05:00:41;8.9;74.8
78514;SHT31;67814;51.976;5.810;2023-12-20T05:03:09;9.0;74.7
78514;SHT31;67814;51.976;5.810;2023-12-20T05:05:39;9.0;74.5
78514;SHT31;67814;51.976;5.810;2023-12-20T05:08:08;9.0;74.4
78514;SHT31;67814;51.976;5.810;2023-12-20T05:10:36;9.1;73.9
78514;SHT31;67814;51.976;5.810;2023-12-20T05:13:06;9.1;73.9
78514;SHT31;67814;51.976;5.810;2023-12-20T05:15:36;9.1;74.1
78514;SHT31;67814;51.976;5.810;2023-12-20T05:18:05;9.1;74.1
78514;SHT31;67814;51.976;5.810;2023-12-20T05:20:33;9.2;73.8
78514;SHT31;67814;51.976;5.810;2023-12-20T05:23:02;9.2;73.7
78514;SHT31;67814;51.976;5.810;2023-12-20T05:25:31;9.2;73.9
78514;SHT31;67814;51.976;5.810;2023-12-20T05:27:59;9.3;74.0
78514;SHT31;67814;51.976;5.810;2023-12-20T05:30:28;9.3;73.4
78514;SHT31;67814;51.976;5.810;2023-12-20T05:32:57;9.4;73.0
78514;SHT31;67814;51.976;5.810;2023-12-20T05:35:25;9.4;72.9
78514;SHT31;67814;51.976;5.810;2023-12-20T05:37:56;9.4;73.3
78514;SHT31;67814;51.976;5.810;2023-12-20T05:40:24;9.4;72.9
78514;SHT31;67814;51.976;5.810;2023-12-20T05:42:53;9.4;73.1
78514;SHT31;67814;51.976;5.810;2023-12-20T05:45:24;9.5;72.7
78514;SHT31;67814;51.976;5.810;2023-12-20T05:47:52;9.5;72.3
78514;SHT31;67814;51.976;5.810;2023-12-20T05:50:21;9.5;72.2
78514;SHT31;67814;51.976;5.810;2023-12-20T05:52:50;9.5;72.3
78514;SHT31;67814;51.976;5.810;2023-12-20T05:55:19;9.5;72.0
78514;SHT31;67814;51.976;5.810;2023-12-20T05:57:48;9.5;71.9
78514;SHT31;67814;51.976;5.810;2023-12-20T06:00:17;9.5;71.9
78514;SHT31;67814;51.976;5.810;2023-12-20T06:02:48;9.5;72.1
78514;SHT31;67814;51.976;5.810;2023-12-20T06:05:17;9.5;71.8
78514;SHT31;67814;51.976;5.810;2023-12-20T06:07:45;9.5;71.5
78514;SHT31;67814;51.976;5.810;2023-12-20T06:10:17;9.5;72.0
78514;SHT31;67814;51.976;5.810;2023-12-20T06:12:45;9.5;72.0
78514;SHT31;67814;51.976;5.810;2023-12-20T06:15:16;9.5;72.0
78514;SHT31;67814;51.976;5.810;2023-12-20T06:17:45;9.5;72.0
78514;SHT31;67814;51.976;5.810;2023-12-20T06:20:16;9.5;71.6
78514;SHT31;67814;51.976;5.810;2023-12-20T06:22:45;9.5;71.4
78514;SHT31;67814;51.976;5.810;2023-12-20T06:25:14;9.5;72.1
78514;SHT31;67814;51.976;5.810;2023-12-20T06:27:43;9.5;71.7
78514;SHT31;67814;51.976;5.810;2023-12-20T06:30:14;9.5;71.7
78514;SHT31;67814;51.976;5.810;2023-12-20T06:32:42;9.5;71.8
78514;SHT31;67814;51.976;5.810;2023-12-20T06:35:13;9.5;71.4
78514;SHT31;67814;51.976;5.810;2023-12-20T06:37:42;9.5;71.9
78514;SHT31;67814;51.976;5.810;2023-12-20T06:40:11;9.5;71.9
78514;SHT31;67814;51.976;5.810;2023-12-20T06:42:40;9.5;71.5
78514;SHT31;67814;51.976;5.810;2023-12-20T06:45:09;9.5;71.6
78514;SHT31;67814;51.976;5.810;2023-12-20T06:47:39;9.5;71.6
78514;SHT31;67814;51.976;5.810;2023-12-20T06:50:08;9.5;71.3
78514;SHT31;67814;51.976;5.810;2023-12-20T06:52:36;9.5;71.1
78514;SHT31;67814;51.976;5.810;2023-12-20T06:55:06;9.5;71.3
78514;SHT31;67814;51.976;5.810;2023-12-20T06:57:36;9.5;71.2
78514;SHT31;67814;51.976;5.810;2023-12-20T07:00:06;9.5;71.5
78514;SHT31;67814;51.976;5.810;2023-12-20T07:02:35;9.5;71.2
78514;SHT31;67814;51.976;5.810;2023-12-20T07:05:04;9.5;71.6
78514;SHT31;67814;51.976;5.810;2023-12-20T07:07:32;9.6;71.3
78514;SHT31;67814;51.976;5.810;2023-12-20T07:10:01;9.6;71.2
78514;SHT31;67814;51.976;5.810;2023-12-20T07:12:32;9.6;71.4
78514;SHT31;67814;51.976;5.810;2023-12-20T07:15:00;9.6;71.0
78514;SHT31;67814;51.976;5.810;2023-12-20T07:17:29;9.6;71.4
78514;SHT31;67814;51.976;5.810;2023-12-20T07:19:59;9.6;71.3
78514;SHT31;67814;51.976;5.810;2023-12-20T07:22:30;9.6;71.1
78514;SHT31;67814;51.976;5.810;2023-12-20T07:25:00;9.7;71.0
78514;SHT31;67814;51.976;5.810;2023-12-20T07:27:28;9.7;70.9
78514;SHT31;67814;51.976;5.810;2023-12-20T07:29:57;9.7;71.2
78514;SHT31;67814;51.976;5.810;2023-12-20T07:32:26;9.6;71.2
78514;SHT31;67814;51.976;5.810;2023-12-20T07:34:57;9.6;71.1
78514;SHT31;67814;51.976;5.810;2023-12-20T07:37:25;9.6;71.3
78514;SHT31;67814;51.976;5.810;2023-12-20T07:39:54;9.6;71.5
78514;SHT31;67814;51.976;5.810;2023-12-20T07:42:23;9.7;71.4
78514;SHT31;67814;51.976;5.810;2023-12-20T07:44:52;9.7;71.4
78514;SHT31;67814;51.976;5.810;2023-12-20T07:47:21;9.7;71.3
78514;SHT31;67814;51.976;5.810;2023-12-20T07:49:51;9.7;71.2
78514;SHT31;67814;51.976;5.810;2023-12-20T07:52:20;9.7;71.0
78514;SHT31;67814;51.976;5.810;2023-12-20T07:54:50;9.7;71.2
78514;SHT31;67814;51.976;5.810;2023-12-20T07:57:18;9.7;71.2
78514;SHT31;67814;51.976;5.810;2023-12-20T07:59:47;9.8;71.2
78514;SHT31;67814;51.976;5.810;2023-12-20T08:02:16;9.8;71.2
78514;SHT31;67814;51.976;5.810;2023-12-20T08:04:45;9.8;71.1
78514;SHT31;67814;51.976;5.810;2023-12-20T08:07:14;9.8;71.0
78514;SHT31;67814;51.976;5.810;2023-12-20T08:09:43;9.8;70.9
78514;SHT31;67814;51.976;5.810;2023-12-20T08:12:11;9.8;70.8
78514;SHT31;67814;51.976;5.810;2023-12-20T08:14:40;9.8;71.0
78514;SHT31;67814;51.976;5.810;2023-12-20T08:17:09;9.9;70.8
78514;SHT31;67814;51.976;5.810;2023-12-20T08:19:39;9.9;70.7
78514;SHT31;67814;51.976;5.810;2023-12-20T08:22:08;9.9;70.9
78514;SHT31;67814;51.976;5.810;2023-12-20T08:24:36;9.9;70.8
78514;SHT31;67814;51.976;5.810;2023-12-20T08:27:05;9.9;70.3
78514;SHT31;67814;51.976;5.810;2023-12-20T08:29:36;9.9;70.3
78514;SHT31;67814;51.976;5.810;2023-12-20T08:32:05;10.0;70.9
78514;SHT31;67814;51.976;5.810;2023-12-20T08:34:33;10.0;70.8
78514;SHT31;67814;51.976;5.810;2023-12-20T08:37:02;10.0;70.4
78514;SHT31;67814;51.976;5.810;2023-12-20T08:39:31;10.0;70.4
78514;SHT31;67814;51.976;5.810;2023-12-20T08:42:00;10.0;70.3
78514;SHT31;67814;51.976;5.810;2023-12-20T08:44:28;10.0;70.4
78514;SHT31;67814;51.976;5.810;2023-12-20T08:46:57;10.0;69.8
78514;SHT31;67814;51.976;5.810;2023-12-20T08:49:26;10.0;70.1
78514;SHT31;67814;51.976;5.810;2023-12-20T08:51:55;10.0;70.3
78514;SHT31;67814;51.976;5.810;2023-12-20T08:54:24;10.0;70.4
78514;SHT31;67814;51.976;5.810;2023-12-20T08:56:53;10.0;70.6
78514;SHT31;67814;51.976;5.810;2023-12-20T08:59:21;10.0;70.5
78514;SHT31;67814;51.976;5.810;2023-12-20T09:01:50;10.0;70.8
78514;SHT31;67814;51.976;5.810;2023-12-20T09:04:23;10.0;71.0
78514;SHT31;67814;51.976;5.810;2023-12-20T09:06:51;10.1;70.9
78514;SHT31;67814;51.976;5.810;2023-12-20T09:09:20;10.1;71.0
78514;SHT31;67814;51.976;5.810;2023-12-20T09:11:49;10.1;71.1
78514;SHT31;67814;51.976;5.810;2023-12-20T09:14:17;10.1;71.2
78514;SHT31;67814;51.976;5.810;2023-12-20T09:16:46;10.1;71.4
78514;SHT31;67814;51.976;5.810;2023-12-20T09:19:17;10.1;71.8
78514;SHT31;67814;51.976;5.810;2023-12-20T09:21:46;10.1;72.1
78514;SHT31;67814;51.976;5.810;2023-12-20T09:24:15;10.1;72.1
78514;SHT31;67814;51.976;5.810;2023-12-20T09:26:44;10.1;72.3
78514;SHT31;67814;51.976;5.810;2023-12-20T09:29:13;10.1;72.5
78514;SHT31;67814;51.976;5.810;2023-12-20T09:31:42;10.1;72.6
78514;SHT31;67814;51.976;5.810;2023-12-20T09:34:14;10.1;72.8
78514;SHT31;67814;51.976;5.810;2023-12-20T09:36:43;10.1;72.9
78514;SHT31;67814;51.976;5.810;2023-12-20T09:39:13;10.1;72.8
78514;SHT31;67814;51.976;5.810;2023-12-20T09:41:44;10.1;72.8
78514;SHT31;67814;51.976;5.810;2023-12-20T09:44:15;10.1;73.3
78514;SHT31;67814;51.976;5.810;2023-12-20T09:46:49;10.0;73.2
78514;SHT31;67814;51.976;5.810;2023-12-20T09:49:18;10.0;73.6
78514;SHT31;67814;51.976;5.810;2023-12-20T09:51:50;10.0;73.8
78514;SHT31;67814;51.976;5.810;2023-12-20T09:54:21;10.0;73.9
78514;SHT31;67814;51.976;5.810;2023-12-20T09:56:50;10.0;73.7
78514;SHT31;67814;51.976;5.810;2023-12-20T09:59:21;10.0;73.6
78514;SHT31;67814;51.976;5.810;2023-12-20T10:01:51;10.0;73.8
78514;SHT31;67814;51.976;5.810;2023-12-20T10:04:24;10.0;73.9
78514;SHT31;67814;51.976;5.810;2023-12-20T10:06:52;10.0;73.7
78514;SHT31;67814;51.976;5.810;2023-12-20T10:09:24;10.0;73.8
78514;SHT31;67814;51.976;5.810;2023-12-20T10:11:55;10.0;73.9
78514;SHT31;67814;51.976;5.810;2023-12-20T10:14:25;10.0;73.9
78514;SHT31;67814;51.976;5.810;2023-12-20T10:16:53;10.0;74.0
78514;SHT31;67814;51.976;5.810;2023-12-20T10:19:27;10.0;73.5
78514;SHT31;67814;51.976;5.810;2023-12-20T10:21:55;10.0;73.9
78514;SHT31;67814;51.976;5.810;2023-12-20T10:24:24;10.1;74.1
78514;SHT31;67814;51.976;5.810;2023-12-20T10:27:03;10.1;74.2
78514;SHT31;67814;51.976;5.810;2023-12-20T10:29:36;10.1;73.7
78514;SHT31;67814;51.976;5.810;2023-12-20T10:32:24;10.1;73.4
78514;SHT31;67814;51.976;5.810;2023-12-20T10:34:54;10.1;73.5
78514;SHT31;67814;51.976;5.810;2023-12-20T10:37:23;10.2;73.5
78514;SHT31;67814;51.976;5.810;2023-12-20T10:39:53;10.2;73.3
78514;SHT31;67814;51.976;5.810;2023-12-20T10:42:25;10.3;73.7
78514;SHT31;67814;51.976;5.810;2023-12-20T10:44:55;10.3;73.2
78514;SHT31;67814;51.976;5.810;2023-12-20T10:47:24;10.4;72.5
78514;SHT31;67814;51.976;5.810;2023-12-20T10:49:54;10.4;72.7
78514;SHT31;67814;51.976;5.810;2023-12-20T10:52:25;10.5;72.4
78514;SHT31;67814;51.976;5.810;2023-12-20T10:54:55;10.5;72.8
78514;SHT31;67814;51.976;5.810;2023-12-20T10:57:29;10.5;72.1
78514;SHT31;67814;51.976;5.810;2023-12-20T11:00:01;10.5;72.3
78514;SHT31;67814;51.976;5.810;2023-12-20T11:02:32;10.6;72.2
78514;SHT31;67814;51.976;5.810;2023-12-20T11:05:10;10.6;72.4
78514;SHT31;67814;51.976;5.810;2023-12-20T11:07:46;10.6;72.0
78514;SHT31;67814;51.976;5.810;2023-12-20T11:10:20;10.7;72.3
78514;SHT31;67814;51.976;5.810;2023-12-20T11:12:54;10.7;72.1
78514;SHT31;67814;51.976;5.810;2023-12-20T11:15:25;10.7;71.9
78514;SHT31;67814;51.976;5.810;2023-12-20T11:17:58;10.8;71.9
78514;SHT31;67814;51.976;5.810;2023-12-20T11:20:36;10.8;72.1
78514;SHT31;67814;51.976;5.810;2023-12-20T11:23:05;10.8;72.0
78514;SHT31;67814;51.976;5.810;2023-12-20T11:25:48;10.9;71.3
78514;SHT31;67814;51.976;5.810;2023-12-20T11:28:21;10.9;70.8
78514;SHT31;67814;51.976;5.810;2023-12-20T11:30:53;11.0;71.4
78514;SHT31;67814;51.976;5.810;2023-12-20T11:33:26;11.0;71.5
78514;SHT31;67814;51.976;5.810;2023-12-20T11:35:58;11.1;70.6
78514;SHT31;67814;51.976;5.810;2023-12-20T11:38:37;11.1;70.6
78514;SHT31;67814;51.976;5.810;2023-12-20T11:41:07;11.2;70.1
78514;SHT31;67814;51.976;5.810;2023-12-20T11:43:38;11.2;69.4
78514;SHT31;67814;51.976;5.810;2023-12-20T11:46:08;11.2;69.2
78514;SHT31;67814;51.976;5.810;2023-12-20T11:48:38;11.2;68.9
78514;SHT31;67814;51.976;5.810;2023-12-20T11:51:12;11.2;68.7
78514;SHT31;67814;51.976;5.810;2023-12-20T11:53:41;11.2;68.5
78514;SHT31;67814;51.976;5.810;2023-12-20T11:56:11;11.2;68.2
78514;SHT31;67814;51.976;5.810;2023-12-20T11:58:40;11.2;68.8
78514;SHT31;67814;51.976;5.810;2023-12-20T12:01:11;11.3;69.1
78514;SHT31;67814;51.976;5.810;2023-12-20T12:03:40;11.3;68.6
78514;SHT31;67814;51.976;5.810;2023-12-20T12:06:09;11.3;68.8
78514;SHT31;67814;51.976;5.810;2023-12-20T12:08:38;11.4;68.2
78514;SHT31;67814;51.976;5.810;2023-12-20T12:11:06;11.4;67.8
78514;SHT31;67814;51.976;5.810;2023-12-20T12:13:35;11.4;66.7
78514;SHT31;67814;51.976;5.810;2023-12-20T12:16:05;11.4;66.3
78514;SHT31;67814;51.976;5.810;2023-12-20T12:18:33;11.4;66.9
78514;SHT31;67814;51.976;5.810;2023-12-20T12:21:03;11.4;66.5
78514;SHT31;67814;51.976;5.810;2023-12-20T12:23:34;11.4;65.9
78514;SHT31;67814;51.976;5.810;2023-12-20T12:26:06;11.4;66.9
78514;SHT31;67814;51.976;5.810;2023-12-20T12:28:36;11.4;66.8
78514;SHT31;67814;51.976;5.810;2023-12-20T12:31:05;11.4;67.0
78514;SHT31;67814;51.976;5.810;2023-12-20T12:33:34;11.5;67.3
78514;SHT31;67814;51.976;5.810;2023-12-20T12:36:03;11.5;67.6
78514;SHT31;67814;51.976;5.810;2023-12-20T12:38:33;11.5;66.6
78514;SHT31;67814;51.976;5.810;2023-12-20T12:41:02;11.6;67.3
78514;SHT31;67814;51.976;5.810;2023-12-20T12:43:32;11.6;68.4
78514;SHT31;67814;51.976;5.810;2023-12-20T12:46:00;11.6;67.4
78514;SHT31;67814;51.976;5.810;2023-12-20T12:48:29;11.6;67.2
78514;SHT31;67814;51.976;5.810;2023-12-20T12:50:59;11.6;67.6
78514;SHT31;67814;51.976;5.810;2023-12-20T12:53:28;11.6;67.3
78514;SHT31;67814;51.976;5.810;2023-12-20T12:55:57;11.6;67.4
78514;SHT31;67814;51.976;5.810;2023-12-20T12:58:25;11.6;67.5
78514;SHT31;67814;51.976;5.810;2023-12-20T13:00:54;11.6;68.0
78514;SHT31;67814;51.976;5.810;2023-12-20T13:03:23;11.6;67.7
78514;SHT31;67814;51.976;5.810;2023-12-20T13:05:53;11.7;67.5
78514;SHT31;67814;51.976;5.810;2023-12-20T13:08:22;11.7;68.2
78514;SHT31;67814;51.976;5.810;2023-12-20T13:10:51;11.7;67.9
78514;SHT31;67814;51.976;5.810;2023-12-20T13:13:19;11.7;67.7
78514;SHT31;67814;51.976;5.810;2023-12-20T13:15:48;11.7;68.1
78514;SHT31;67814;51.976;5.810;2023-12-20T13:18:22;11.7;68.1
78514;SHT31;67814;51.976;5.810;2023-12-20T13:20:50;11.7;67.4
78514;SHT31;67814;51.976;5.810;2023-12-20T13:23:19;11.7;67.6
78514;SHT31;67814;51.976;5.810;2023-12-20T13:25:48;11.8;67.1
78514;SHT31;67814;51.976;5.810;2023-12-20T13:28:16;11.8;66.8
78514;SHT31;67814;51.976;5.810;2023-12-20T13:30:45;11.8;67.9
78514;SHT31;67814;51.976;5.810;2023-12-20T13:33:16;11.8;67.6
78514;SHT31;67814;51.976;5.810;2023-12-20T13:35:44;11.8;67.3
78514;SHT31;67814;51.976;5.810;2023-12-20T13:38:14;11.8;67.2
78514;SHT31;67814;51.976;5.810;2023-12-20T13:40:43;11.8;67.1
78514;SHT31;67814;51.976;5.810;2023-12-20T13:43:12;11.8;66.9
78514;SHT31;67814;51.976;5.810;2023-12-20T13:45:40;11.8;67.2
78514;SHT31;67814;51.976;5.810;2023-12-20T13:48:09;11.8;66.7
78514;SHT31;67814;51.976;5.810;2023-12-20T13:50:38;11.7;66.9
78514;SHT31;67814;51.976;5.810;2023-12-20T13:53:07;11.7;66.9
78514;SHT31;67814;51.976;5.810;2023-12-20T13:55:35;11.7;67.0
78514;SHT31;67814;51.976;5.810;2023-12-20T13:58:04;11.7;66.7
78514;SHT31;67814;51.976;5.810;2023-12-20T14:00:32;11.7;66.7
78514;SHT31;67814;51.976;5.810;2023-12-20T14:03:03;11.7;66.8
78514;SHT31;67814;51.976;5.810;2023-12-20T14:05:32;11.6;66.7
78514;SHT31;67814;51.976;5.810;2023-12-20T14:08:00;11.6;66.7
78514;SHT31;67814;51.976;5.810;2023-12-20T14:10:29;11.6;66.9
78514;SHT31;67814;51.976;5.810;2023-12-20T14:12:58;11.6;67.3
78514;SHT31;67814;51.976;5.810;2023-12-20T14:15:27;11.6;66.9
78514;SHT31;67814;51.976;5.810;2023-12-20T14:17:55;11.6;66.9
78514;SHT31;67814;51.976;5.810;2023-12-20T14:20:24;11.6;66.8
78514;SHT31;67814;51.976;5.810;2023-12-20T14:22:53;11.6;66.8
78514;SHT31;67814;51.976;5.810;2023-12-20T14:25:21;11.6;66.7
78514;SHT31;67814;51.976;5.810;2023-12-20T14:27:51;11.7;66.6
78514;SHT31;67814;51.976;5.810;2023-12-20T14:30:20;11.7;66.7
78514;SHT31;67814;51.976;5.810;2023-12-20T14:32:49;11.7;66.3
78514;SHT31;67814;51.976;5.810;2023-12-20T14:35:19;11.7;67.1
78514;SHT31;67814;51.976;5.810;2023-12-20T14:37:49;11.7;66.5
78514;SHT31;67814;51.976;5.810;2023-12-20T14:40:17;11.7;66.6
78514;SHT31;67814;51.976;5.810;2023-12-20T14:42:46;11.7;66.5
78514;SHT31;67814;51.976;5.810;2023-12-20T14:45:15;11.7;66.5
78514;SHT31;67814;51.976;5.810;2023-12-20T14:47:46;11.7;66.5
78514;SHT31;67814;51.976;5.810;2023-12-20T14:50:16;11.7;66.5
78514;SHT31;67814;51.976;5.810;2023-12-20T14:52:45;11.7;67.0
78514;SHT31;67814;51.976;5.810;2023-12-20T14:55:14;11.7;66.6
78514;SHT31;67814;51.976;5.810;2023-12-20T14:57:43;11.7;66.7
78514;SHT31;67814;51.976;5.810;2023-12-20T15:00:12;11.6;66.6
78514;SHT31;67814;51.976;5.810;2023-12-20T15:02:42;11.6;67.0
78514;SHT31;67814;51.976;5.810;2023-12-20T15:05:11;11.6;67.1
78514;SHT31;67814;51.976;5.810;2023-12-20T15:07:40;11.6;66.9
78514;SHT31;67814;51.976;5.810;2023-12-20T15:10:09;11.6;66.9
78514;SHT31;67814;51.976;5.810;2023-12-20T15:12:38;11.6;66.9
78514;SHT31;67814;51.976;5.810;2023-12-20T15:15:07;11.5;67.0
78514;SHT31;67814;51.976;5.810;2023-12-20T15:17:37;11.5;67.6
78514;SHT31;67814;51.976;5.810;2023-12-20T15:20:06;11.5;67.2
78514;SHT31;67814;51.976;5.810;2023-12-20T15:22:36;11.5;67.3
78514;SHT31;67814;51.976;5.810;2023-12-20T15:25:06;11.5;67.9
78514;SHT31;67814;51.976;5.810;2023-12-20T15:27:35;11.5;67.9
78514;SHT31;67814;51.976;5.810;2023-12-20T15:30:05;11.5;68.5
78514;SHT31;67814;51.976;5.810;2023-12-20T15:32:36;11.5;68.4
78514;SHT31;67814;51.976;5.810;2023-12-20T15:35:05;11.5;68.5
78514;SHT31;67814;51.976;5.810;2023-12-20T15:37:35;11.5;68.5
78514;SHT31;67814;51.976;5.810;2023-12-20T15:40:06;11.4;68.6
78514;SHT31;67814;51.976;5.810;2023-12-20T15:42:36;11.4;69.0
78514;SHT31;67814;51.976;5.810;2023-12-20T15:45:06;11.4;69.0
78514;SHT31;67814;51.976;5.810;2023-12-20T15:47:35;11.4;69.4
78514;SHT31;67814;51.976;5.810;2023-12-20T15:50:05;11.4;69.5
78514;SHT31;67814;51.976;5.810;2023-12-20T15:52:34;11.4;69.6
78514;SHT31;67814;51.976;5.810;2023-12-20T15:55:04;11.4;69.7
78514;SHT31;67814;51.976;5.810;2023-12-20T15:57:33;11.4;70.0
78514;SHT31;67814;51.976;5.810;2023-12-20T16:00:03;11.4;70.3
78514;SHT31;67814;51.976;5.810;2023-12-20T16:02:32;11.3;70.8
78514;SHT31;67814;51.976;5.810;2023-12-20T16:05:01;11.3;71.3
78514;SHT31;67814;51.976;5.810;2023-12-20T16:07:29;11.3;71.2
78514;SHT31;67814;51.976;5.810;2023-12-20T16:09:58;11.3;71.4
78514;SHT31;67814;51.976;5.810;2023-12-20T16:12:27;11.3;71.3
78514;SHT31;67814;51.976;5.810;2023-12-20T16:14:57;11.2;71.7
78514;SHT31;67814;51.976;5.810;2023-12-20T16:17:25;11.2;71.6
78514;SHT31;67814;51.976;5.810;2023-12-20T16:19:55;11.2;72.3
78514;SHT31;67814;51.976;5.810;2023-12-20T16:22:24;11.2;72.2